createdAt,value
2023-02-24T00:00:32.535Z,1002.11
2023-02-24T00:01:32.218Z,1002.09
2023-02-24T00:02:32.258Z,1002.06
2023-02-24T00:03:32.216Z,1002.02
2023-02-24T00:04:32.113Z,1002
2023-02-24T00:05:32.082Z,1001.98
2023-02-24T00:06:32.043Z,1001.99
2023-02-24T00:07:32.018Z,1002.02
2023-02-24T00:08:31.976Z,1002.03
2023-02-24T00:09:31.970Z,1002
2023-02-24T00:10:31.910Z,1001.99
2023-02-24T00:11:31.903Z,1001.95
2023-02-24T00:12:31.841Z,1001.97
2023-02-24T00:13:31.812Z,1001.92
2023-02-24T00:14:31.774Z,1001.89
2023-02-24T00:15:31.741Z,1001.92
2023-02-24T00:16:31.789Z,1001.96
2023-02-24T00:17:31.795Z,1001.92
2023-02-24T00:18:31.664Z,1001.88
2023-02-24T00:19:31.607Z,1001.83
2023-02-24T00:20:31.575Z,1001.83
2023-02-24T00:21:31.538Z,1001.78
2023-02-24T00:22:31.507Z,1001.78
2023-02-24T00:23:31.472Z,1001.81
2023-02-24T00:24:31.450Z,1001.79
2023-02-24T00:25:31.403Z,1001.75
2023-02-24T00:26:31.369Z,1001.73
2023-02-24T00:27:31.364Z,1001.76
2023-02-24T00:28:31.304Z,1001.81
2023-02-24T00:29:31.272Z,1001.81
2023-02-24T00:30:31.243Z,1001.79
2023-02-24T00:31:31.344Z,1001.78
2023-02-24T00:32:31.359Z,1001.74
2023-02-24T00:33:31.142Z,1001.7
2023-02-24T00:34:31.107Z,1001.69
2023-02-24T00:35:31.077Z,1001.64
2023-02-24T00:36:31.042Z,1001.63
2023-02-24T00:37:31.016Z,1001.64
2023-02-24T00:38:30.977Z,1001.61
2023-02-24T00:39:30.945Z,1001.62
2023-02-24T00:40:30.944Z,1001.6
2023-02-24T00:41:30.892Z,1001.6
2023-02-24T00:42:30.845Z,1001.58
2023-02-24T00:43:30.838Z,1001.6
2023-02-24T00:44:30.780Z,1001.57
2023-02-24T00:45:30.903Z,1001.56
2023-02-24T00:46:30.732Z,1001.54
2023-02-24T00:47:30.677Z,1001.54
2023-02-24T00:48:30.646Z,1001.56
2023-02-24T00:49:30.619Z,1001.53
2023-02-24T00:50:30.605Z,1001.51
2023-02-24T00:51:30.545Z,1001.48
2023-02-24T00:52:30.511Z,1001.5
2023-02-24T00:53:30.477Z,1001.48
2023-02-24T00:54:30.443Z,1001.47
2023-02-24T00:55:30.411Z,1001.45
2023-02-24T00:56:30.382Z,1001.44
2023-02-24T00:57:30.343Z,1001.37
2023-02-24T00:58:30.311Z,1001.37
2023-02-24T00:59:30.304Z,1001.41
2023-02-24T01:00:30.246Z,1001.43
2023-02-24T01:01:30.245Z,1001.46
2023-02-24T01:02:30.176Z,1001.41
2023-02-24T01:03:30.196Z,1001.42
2023-02-24T01:04:30.113Z,1001.35
2023-02-24T01:05:30.078Z,1001.41
2023-02-24T01:06:30.047Z,1001.4
2023-02-24T01:07:30.007Z,1001.43
2023-02-24T01:08:29.973Z,1001.44
2023-02-24T01:09:29.943Z,1001.43
2023-02-24T01:10:29.906Z,1001.41
2023-02-24T01:11:29.874Z,1001.42
2023-02-24T01:12:29.851Z,1001.41
2023-02-24T01:13:29.805Z,1001.37
2023-02-24T01:14:29.773Z,1001.36
2023-02-24T01:15:29.771Z,1001.39
2023-02-24T01:16:29.706Z,1001.36
2023-02-24T01:17:29.669Z,1001.39
2023-02-24T01:18:29.637Z,1001.37
2023-02-24T01:19:29.604Z,1001.39
2023-02-24T01:20:29.570Z,1001.36
2023-02-24T01:21:29.534Z,1001.38
2023-02-24T01:22:29.504Z,1001.33
2023-02-24T01:23:29.474Z,1001.33
2023-02-24T01:24:29.436Z,1001.26
2023-02-24T01:25:29.400Z,1001.32
2023-02-24T01:26:29.370Z,1001.32
2023-02-24T01:27:29.333Z,1001.26
2023-02-24T01:28:29.301Z,1001.26
2023-02-24T01:29:29.265Z,1001.24
2023-02-24T01:30:29.232Z,1001.23
2023-02-24T01:31:29.313Z,1001.23
2023-02-24T01:32:29.295Z,1001.2
2023-02-24T01:33:29.132Z,1001.22
2023-02-24T01:34:29.098Z,1001.2
2023-02-24T01:35:29.063Z,1001.21
2023-02-24T01:36:29.031Z,1001.17
2023-02-24T01:37:28.998Z,1001.16
2023-02-24T01:38:28.968Z,1001.18
2023-02-24T01:39:28.932Z,1001.19
2023-02-24T01:40:28.897Z,1001.17
2023-02-24T01:41:28.866Z,1001.12
2023-02-24T01:42:28.830Z,1001.14
2023-02-24T01:43:28.802Z,1001.12
2023-02-24T01:44:28.763Z,1001.12
2023-02-24T01:45:29.013Z,1001.12
2023-02-24T01:46:28.752Z,1001.13
2023-02-24T01:47:28.691Z,1001.13
2023-02-24T01:48:28.641Z,1001.11
2023-02-24T01:49:28.604Z,1001.12
2023-02-24T01:50:28.582Z,1001.1
2023-02-24T01:51:28.530Z,1001.1
2023-02-24T01:52:28.493Z,1001.08
2023-02-24T01:53:28.462Z,1001.1
2023-02-24T01:54:28.428Z,1001.06
2023-02-24T01:55:28.398Z,1001.04
2023-02-24T01:56:28.360Z,1001.02
2023-02-24T01:57:28.328Z,1001.02
2023-02-24T01:58:28.294Z,1001
2023-02-24T01:59:28.262Z,1000.99
2023-02-24T02:00:28.227Z,1000.98
2023-02-24T02:01:28.312Z,1000.96
2023-02-24T02:02:28.301Z,1000.98
2023-02-24T02:03:28.150Z,1000.98
2023-02-24T02:04:28.091Z,1000.96
2023-02-24T02:05:28.159Z,1001.02
2023-02-24T02:06:28.024Z,1000.94
2023-02-24T02:07:27.991Z,1000.93
2023-02-24T02:08:27.955Z,1000.9
2023-02-24T02:09:27.925Z,1000.85
2023-02-24T02:10:27.889Z,1000.86
2023-02-24T02:11:27.856Z,1000.82
2023-02-24T02:12:27.824Z,1000.83
2023-02-24T02:13:27.838Z,1000.81
2023-02-24T02:14:27.764Z,1000.76
2023-02-24T02:15:27.720Z,1000.75
2023-02-24T02:16:27.744Z,1000.69
2023-02-24T02:17:27.652Z,1000.68
2023-02-24T02:18:27.617Z,1000.63
2023-02-24T02:19:27.609Z,1000.59
2023-02-24T02:20:27.555Z,1000.55
2023-02-24T02:21:27.534Z,1000.52
2023-02-24T02:22:27.481Z,1000.54
2023-02-24T02:23:27.451Z,1000.52
2023-02-24T02:24:27.422Z,1000.5
2023-02-24T02:25:27.381Z,1000.47
2023-02-24T02:26:27.347Z,1000.48
2023-02-24T02:27:27.314Z,1000.46
2023-02-24T02:28:27.281Z,1000.48
2023-02-24T02:29:27.252Z,1000.46
2023-02-24T02:30:27.219Z,1000.4
2023-02-24T02:31:27.274Z,1000.4
2023-02-24T02:32:27.266Z,1000.38
2023-02-24T02:33:27.111Z,1000.34
2023-02-24T02:34:27.080Z,1000.36
2023-02-24T02:35:27.073Z,1000.29
2023-02-24T02:36:27.011Z,1000.32
2023-02-24T02:37:26.996Z,1000.35
2023-02-24T02:38:26.943Z,1000.29
2023-02-24T02:39:26.907Z,1000.3
2023-02-24T02:40:26.881Z,1000.27
2023-02-24T02:41:26.841Z,1000.29
2023-02-24T02:42:26.807Z,1000.26
2023-02-24T02:43:26.771Z,1000.23
2023-02-24T02:44:26.740Z,1000.22
2023-02-24T02:45:26.723Z,1000.22
2023-02-24T02:46:26.686Z,1000.17
2023-02-24T02:47:26.639Z,1000.19
2023-02-24T02:48:26.600Z,1000.18
2023-02-24T02:49:26.564Z,1000.14
2023-02-24T02:50:26.539Z,1000.12
2023-02-24T02:51:26.520Z,1000.08
2023-02-24T02:52:26.463Z,1000.1
2023-02-24T02:53:26.431Z,1000.09
2023-02-24T02:54:26.392Z,1000.08
2023-02-24T02:55:26.357Z,1000.1
2023-02-24T02:56:26.329Z,1000.08
2023-02-24T02:57:26.289Z,1000.05
2023-02-24T02:58:26.305Z,1000.01
2023-02-24T02:59:26.219Z,1000.03
2023-02-24T03:00:26.187Z,1000.02
2023-02-24T03:01:26.166Z,1000.04
2023-02-24T03:02:26.118Z,1000
2023-02-24T03:03:26.083Z,1000.01
2023-02-24T03:04:26.088Z,999.99
2023-02-24T03:05:26.013Z,999.96
2023-02-24T03:06:25.982Z,999.95
2023-02-24T03:07:25.970Z,999.96
2023-02-24T03:08:25.924Z,999.89
2023-02-24T03:09:25.877Z,999.88
2023-02-24T03:10:25.845Z,999.88
2023-02-24T03:11:25.809Z,999.89
2023-02-24T03:12:25.777Z,999.9
2023-02-24T03:13:25.771Z,999.85
2023-02-24T03:14:25.709Z,999.86
2023-02-24T03:15:25.673Z,999.88
2023-02-24T03:16:25.671Z,999.87
2023-02-24T03:17:25.608Z,999.88
2023-02-24T03:18:25.576Z,999.87
2023-02-24T03:19:25.536Z,999.84
2023-02-24T03:20:25.504Z,999.83
2023-02-24T03:21:25.493Z,999.87
2023-02-24T03:22:25.437Z,999.82
2023-02-24T03:23:25.446Z,999.81
2023-02-24T03:24:25.366Z,999.74
2023-02-24T03:25:25.334Z,999.73
2023-02-24T03:26:25.297Z,999.73
2023-02-24T03:27:25.264Z,999.73
2023-02-24T03:28:25.231Z,999.73
2023-02-24T03:29:25.203Z,999.69
2023-02-24T03:30:25.162Z,999.65
2023-02-24T03:31:25.542Z,999.64
2023-02-24T03:32:25.210Z,999.63
2023-02-24T03:33:25.061Z,999.65
2023-02-24T03:34:25.028Z,999.64
2023-02-24T03:35:24.995Z,999.63
2023-02-24T03:36:24.958Z,999.62
2023-02-24T03:37:24.925Z,999.66
2023-02-24T03:38:24.888Z,999.64
2023-02-24T03:39:24.892Z,999.64
2023-02-24T03:40:24.822Z,999.65
2023-02-24T03:41:24.789Z,999.67
2023-02-24T03:42:24.752Z,999.66
2023-02-24T03:43:24.720Z,999.66
2023-02-24T03:44:24.685Z,999.61
2023-02-24T03:45:24.653Z,999.61
2023-02-24T03:46:24.672Z,999.56
2023-02-24T03:47:24.587Z,999.59
2023-02-24T03:48:24.554Z,999.61
2023-02-24T03:49:24.517Z,999.55
2023-02-24T03:50:24.479Z,999.5
2023-02-24T03:51:24.449Z,999.53
2023-02-24T03:52:24.411Z,999.51
2023-02-24T03:53:24.382Z,999.51
2023-02-24T03:54:24.342Z,999.53
2023-02-24T03:55:24.341Z,999.52
2023-02-24T03:56:24.278Z,999.5
2023-02-24T03:57:24.241Z,999.5
2023-02-24T03:58:24.204Z,999.49
2023-02-24T03:59:24.171Z,999.54
2023-02-24T04:00:24.134Z,999.53
2023-02-24T04:01:24.102Z,999.57
2023-02-24T04:02:24.154Z,999.53
2023-02-24T04:03:24.033Z,999.56
2023-02-24T04:04:24.039Z,999.52
2023-02-24T04:05:23.967Z,999.52
2023-02-24T04:06:23.929Z,999.5
2023-02-24T04:07:23.917Z,999.49
2023-02-24T04:08:23.861Z,999.52
2023-02-24T04:09:23.826Z,999.49
2023-02-24T04:10:23.808Z,999.52
2023-02-24T04:11:23.785Z,999.52
2023-02-24T04:12:23.745Z,999.49
2023-02-24T04:13:23.691Z,999.5
2023-02-24T04:14:23.657Z,999.48
2023-02-24T04:15:23.628Z,999.45
2023-02-24T04:16:23.587Z,999.44
2023-02-24T04:17:23.557Z,999.38
2023-02-24T04:18:23.517Z,999.38
2023-02-24T04:19:23.483Z,999.41
2023-02-24T04:20:23.452Z,999.37
2023-02-24T04:21:23.425Z,999.41
2023-02-24T04:22:23.382Z,999.38
2023-02-24T04:23:23.348Z,999.38
2023-02-24T04:24:23.313Z,999.4
2023-02-24T04:25:23.277Z,999.4
2023-02-24T04:26:23.251Z,999.38
2023-02-24T04:27:23.234Z,999.4
2023-02-24T04:28:23.177Z,999.41
2023-02-24T04:29:23.172Z,999.36
2023-02-24T04:30:23.112Z,999.38
2023-02-24T04:31:23.577Z,999.38
2023-02-24T04:32:23.170Z,999.33
2023-02-24T04:33:23.005Z,999.29
2023-02-24T04:34:22.974Z,999.31
2023-02-24T04:35:22.992Z,999.3
2023-02-24T04:36:22.905Z,999.27
2023-02-24T04:37:22.947Z,999.33
2023-02-24T04:38:22.836Z,999.27
2023-02-24T04:39:22.801Z,999.23
2023-02-24T04:40:22.771Z,999.26
2023-02-24T04:41:22.997Z,999.26
2023-02-24T04:42:22.699Z,999.24
2023-02-24T04:43:22.687Z,999.19
2023-02-24T04:44:22.631Z,999.15
2023-02-24T04:45:22.596Z,999.14
2023-02-24T04:46:22.616Z,999.14
2023-02-24T04:47:22.527Z,999.14
2023-02-24T04:48:22.493Z,999.11
2023-02-24T04:49:22.457Z,999.13
2023-02-24T04:50:22.482Z,999.08
2023-02-24T04:51:22.674Z,999.16
2023-02-24T04:52:22.361Z,999.09
2023-02-24T04:53:22.321Z,999.12
2023-02-24T04:54:22.290Z,999.13
2023-02-24T04:55:22.253Z,999.11
2023-02-24T04:56:22.221Z,999.09
2023-02-24T04:57:22.202Z,999.08
2023-02-24T04:58:22.186Z,999.05
2023-02-24T04:59:22.158Z,999.04
2023-02-24T05:00:22.083Z,999.05
2023-02-24T05:01:22.310Z,999.02
2023-02-24T05:02:22.014Z,998.99
2023-02-24T05:03:21.988Z,998.95
2023-02-24T05:04:22.010Z,998.98
2023-02-24T05:05:21.914Z,998.99
2023-02-24T05:06:21.879Z,999.02
2023-02-24T05:07:21.848Z,998.99
2023-02-24T05:08:21.814Z,998.99
2023-02-24T05:09:21.780Z,998.94
2023-02-24T05:10:21.743Z,998.98
2023-02-24T05:11:22.069Z,998.96
2023-02-24T05:12:21.675Z,999.03
2023-02-24T05:13:21.643Z,998.95
2023-02-24T05:14:21.607Z,998.95
2023-02-24T05:15:21.600Z,998.9
2023-02-24T05:16:21.589Z,998.93
2023-02-24T05:17:21.517Z,998.9
2023-02-24T05:18:21.472Z,998.89
2023-02-24T05:19:21.441Z,998.92
2023-02-24T05:20:21.404Z,998.92
2023-02-24T05:21:21.624Z,998.9
2023-02-24T05:22:21.338Z,998.86
2023-02-24T05:23:21.305Z,998.85
2023-02-24T05:24:21.267Z,998.83
2023-02-24T05:25:21.248Z,998.8
2023-02-24T05:26:21.200Z,998.77
2023-02-24T05:27:21.168Z,998.83
2023-02-24T05:28:21.132Z,998.76
2023-02-24T05:29:21.100Z,998.77
2023-02-24T05:30:21.076Z,998.8
2023-02-24T05:31:21.441Z,998.77
2023-02-24T05:32:21.123Z,998.76
2023-02-24T05:33:20.963Z,998.78
2023-02-24T05:34:20.929Z,998.71
2023-02-24T05:35:20.903Z,998.71
2023-02-24T05:36:20.858Z,998.69
2023-02-24T05:37:20.828Z,998.68
2023-02-24T05:38:20.808Z,998.65
2023-02-24T05:39:20.755Z,998.63
2023-02-24T05:40:20.721Z,998.6
2023-02-24T05:41:21.049Z,998.55
2023-02-24T05:42:20.653Z,998.54
2023-02-24T05:43:20.638Z,998.56
2023-02-24T05:44:20.592Z,998.55
2023-02-24T05:45:20.585Z,998.49
2023-02-24T05:46:20.567Z,998.51
2023-02-24T05:47:20.505Z,998.51
2023-02-24T05:48:20.450Z,998.49
2023-02-24T05:49:20.415Z,998.48
2023-02-24T05:50:20.377Z,998.49
2023-02-24T05:51:20.723Z,998.48
2023-02-24T05:52:20.331Z,998.47
2023-02-24T05:53:20.279Z,998.47
2023-02-24T05:54:20.240Z,998.46
2023-02-24T05:55:20.208Z,998.44
2023-02-24T05:56:20.181Z,998.39
2023-02-24T05:57:20.138Z,998.4
2023-02-24T05:58:20.106Z,998.35
2023-02-24T05:59:20.071Z,998.36
2023-02-24T06:00:20.044Z,998.34
2023-02-24T06:01:20.374Z,998.34
2023-02-24T06:02:20.011Z,998.32
2023-02-24T06:03:20.006Z,998.27
2023-02-24T06:04:19.901Z,998.28
2023-02-24T06:05:20.926Z,998.27
2023-02-24T06:06:19.833Z,998.24
2023-02-24T06:07:19.904Z,998.25
2023-02-24T06:08:19.765Z,998.23
2023-02-24T06:09:19.730Z,998.23
2023-02-24T06:10:19.697Z,998.24
2023-02-24T06:11:20.072Z,998.23
2023-02-24T06:12:19.636Z,998.21
2023-02-24T06:13:19.597Z,998.24
2023-02-24T06:14:19.560Z,998.24
2023-02-24T06:15:19.525Z,998.21
2023-02-24T06:16:19.516Z,998.18
2023-02-24T06:17:19.455Z,998.13
2023-02-24T06:18:19.425Z,998.16
2023-02-24T06:19:19.411Z,998.17
2023-02-24T06:20:19.355Z,998.15
2023-02-24T06:21:19.555Z,998.17
2023-02-24T06:22:19.305Z,998.06
2023-02-24T06:23:19.250Z,998.13
2023-02-24T06:24:19.216Z,998.16
2023-02-24T06:25:19.183Z,998.13
2023-02-24T06:26:19.173Z,998.11
2023-02-24T06:27:19.135Z,998.1
2023-02-24T06:28:19.084Z,998.09
2023-02-24T06:29:19.052Z,998.08
2023-02-24T06:30:19.017Z,998.05
2023-02-24T06:31:19.100Z,998.02
2023-02-24T06:32:19.093Z,998.01
2023-02-24T06:33:18.916Z,998.04
2023-02-24T06:34:18.883Z,998
2023-02-24T06:35:18.869Z,997.98
2023-02-24T06:36:18.817Z,997.95
2023-02-24T06:37:18.795Z,997.95
2023-02-24T06:38:18.746Z,997.97
2023-02-24T06:39:18.709Z,997.91
2023-02-24T06:40:18.693Z,997.92
2023-02-24T06:41:18.780Z,997.87
2023-02-24T06:42:18.628Z,997.83
2023-02-24T06:43:18.576Z,997.87
2023-02-24T06:44:18.543Z,997.8
2023-02-24T06:45:18.512Z,997.86
2023-02-24T06:46:18.508Z,997.81
2023-02-24T06:47:18.441Z,997.86
2023-02-24T06:48:18.403Z,997.74
2023-02-24T06:49:18.372Z,997.83
2023-02-24T06:50:18.345Z,997.83
2023-02-24T06:51:18.580Z,997.76
2023-02-24T06:52:18.455Z,997.78
2023-02-24T06:53:18.235Z,997.78
2023-02-24T06:54:18.208Z,997.76
2023-02-24T06:55:18.167Z,997.74
2023-02-24T06:56:18.132Z,997.72
2023-02-24T06:57:18.112Z,997.7
2023-02-24T06:58:18.066Z,997.76
2023-02-24T06:59:18.033Z,997.74
2023-02-24T07:00:18.000Z,997.71
2023-02-24T07:01:18.001Z,997.71
2023-02-24T07:02:17.928Z,997.75
2023-02-24T07:03:17.896Z,997.77
2023-02-24T07:04:18.120Z,997.76
2023-02-24T07:05:17.829Z,997.78
2023-02-24T07:06:17.793Z,997.72
2023-02-24T07:07:17.880Z,997.73
2023-02-24T07:08:17.729Z,997.77
2023-02-24T07:09:17.693Z,997.75
2023-02-24T07:10:17.659Z,997.73
2023-02-24T07:11:17.627Z,997.71
2023-02-24T07:12:17.612Z,997.73
2023-02-24T07:13:17.558Z,997.71
2023-02-24T07:14:17.523Z,997.69
2023-02-24T07:15:17.489Z,997.72
2023-02-24T07:16:17.515Z,997.69
2023-02-24T07:17:17.422Z,997.71
2023-02-24T07:18:17.395Z,997.7
2023-02-24T07:19:17.355Z,997.67
2023-02-24T07:20:17.323Z,997.67
2023-02-24T07:21:17.286Z,997.67
2023-02-24T07:22:17.251Z,997.63
2023-02-24T07:23:17.253Z,997.7
2023-02-24T07:24:17.184Z,997.68
2023-02-24T07:25:17.150Z,997.62
2023-02-24T07:26:17.122Z,997.65
2023-02-24T07:27:17.087Z,997.64
2023-02-24T07:28:17.048Z,997.61
2023-02-24T07:29:17.018Z,997.62
2023-02-24T07:30:16.983Z,997.58
2023-02-24T07:31:17.124Z,997.59
2023-02-24T07:32:17.040Z,997.54
2023-02-24T07:33:16.944Z,997.53
2023-02-24T07:34:16.865Z,997.47
2023-02-24T07:35:16.864Z,997.46
2023-02-24T07:36:16.825Z,997.42
2023-02-24T07:37:16.942Z,997.42
2023-02-24T07:38:16.711Z,997.35
2023-02-24T07:39:16.707Z,997.42
2023-02-24T07:40:16.642Z,997.41
2023-02-24T07:41:16.610Z,997.38
2023-02-24T07:42:16.608Z,997.35
2023-02-24T07:43:16.542Z,997.33
2023-02-24T07:44:16.512Z,997.33
2023-02-24T07:45:16.519Z,997.34
2023-02-24T07:46:16.487Z,997.28
2023-02-24T07:47:16.447Z,997.22
2023-02-24T07:48:16.374Z,997.21
2023-02-24T07:49:16.336Z,997.22
2023-02-24T07:50:16.309Z,997.2
2023-02-24T07:51:16.270Z,997.21
2023-02-24T07:52:16.334Z,997.16
2023-02-24T07:53:16.203Z,997.14
2023-02-24T07:54:16.172Z,997.14
2023-02-24T07:55:16.165Z,997.15
2023-02-24T07:56:16.111Z,997.08
2023-02-24T07:57:16.069Z,997.08
2023-02-24T07:58:16.034Z,997.04
2023-02-24T07:59:16.016Z,997
2023-02-24T08:00:15.971Z,997.07
2023-02-24T08:01:15.932Z,997.07
2023-02-24T08:02:16.017Z,997.02
2023-02-24T08:03:15.868Z,997.01
2023-02-24T08:04:15.843Z,997
2023-02-24T08:05:15.815Z,996.97
2023-02-24T08:06:15.765Z,996.91
2023-02-24T08:07:15.744Z,996.89
2023-02-24T08:08:15.746Z,996.93
2023-02-24T08:09:15.665Z,996.86
2023-02-24T08:10:15.633Z,996.86
2023-02-24T08:11:15.633Z,996.84
2023-02-24T08:12:15.570Z,996.8
2023-02-24T08:13:15.534Z,996.8
2023-02-24T08:14:15.501Z,996.77
2023-02-24T08:15:15.465Z,996.73
2023-02-24T08:16:15.550Z,996.74
2023-02-24T08:17:15.404Z,996.74
2023-02-24T08:18:15.368Z,996.71
2023-02-24T08:19:15.332Z,996.72
2023-02-24T08:20:15.378Z,996.69
2023-02-24T08:21:15.267Z,996.66
2023-02-24T08:22:15.235Z,996.64
2023-02-24T08:23:15.201Z,996.58
2023-02-24T08:24:15.168Z,996.6
2023-02-24T08:25:15.134Z,996.57
2023-02-24T08:26:15.204Z,996.62
2023-02-24T08:27:15.093Z,996.57
2023-02-24T08:28:15.035Z,996.55
2023-02-24T08:29:15.012Z,996.56
2023-02-24T08:30:14.992Z,996.61
2023-02-24T08:31:15.057Z,996.53
2023-02-24T08:32:15.101Z,996.56
2023-02-24T08:33:14.870Z,996.46
2023-02-24T08:34:14.836Z,996.45
2023-02-24T08:35:14.846Z,996.52
2023-02-24T08:36:14.769Z,996.45
2023-02-24T08:37:14.738Z,996.52
2023-02-24T08:38:14.704Z,996.52
2023-02-24T08:39:14.679Z,996.53
2023-02-24T08:40:14.637Z,996.57
2023-02-24T08:41:14.604Z,996.51
2023-02-24T08:42:14.570Z,996.45
2023-02-24T08:43:14.563Z,996.48
2023-02-24T08:44:14.504Z,996.44
2023-02-24T08:45:14.473Z,996.42
2023-02-24T08:46:14.458Z,996.36
2023-02-24T08:47:14.408Z,996.41
2023-02-24T08:48:14.374Z,996.38
2023-02-24T08:49:14.346Z,996.4
2023-02-24T08:50:14.312Z,996.34
2023-02-24T08:51:14.276Z,996.28
2023-02-24T08:52:14.263Z,996.3
2023-02-24T08:53:14.219Z,996.27
2023-02-24T08:54:14.177Z,996.26
2023-02-24T08:55:14.150Z,996.25
2023-02-24T08:56:14.111Z,996.31
2023-02-24T08:57:14.079Z,996.25
2023-02-24T08:58:14.044Z,996.15
2023-02-24T08:59:14.043Z,996.21
2023-02-24T09:00:13.979Z,996.17
2023-02-24T09:01:14.024Z,996.15
2023-02-24T09:02:13.915Z,996.14
2023-02-24T09:03:13.881Z,996.14
2023-02-24T09:04:13.846Z,996.13
2023-02-24T09:05:14.671Z,996.1
2023-02-24T09:06:13.786Z,996.05
2023-02-24T09:07:13.749Z,996.16
2023-02-24T09:08:13.749Z,996.09
2023-02-24T09:09:13.688Z,996.1
2023-02-24T09:10:13.661Z,996.05
2023-02-24T09:11:13.616Z,996.03
2023-02-24T09:12:13.631Z,995.98
2023-02-24T09:13:13.552Z,996.02
2023-02-24T09:14:25.779Z,996.04
2023-02-24T09:15:13.525Z,995.93
2023-02-24T09:16:13.467Z,995.96
2023-02-24T09:17:13.421Z,995.99
2023-02-24T09:18:13.387Z,996.04
2023-02-24T09:19:13.360Z,995.95
2023-02-24T09:20:13.318Z,995.98
2023-02-24T09:21:13.285Z,995.97
2023-02-24T09:22:20.005Z,995.98
2023-02-24T09:23:13.235Z,996.01
2023-02-24T09:24:14.962Z,996.03
2023-02-24T09:25:13.163Z,995.97
2023-02-24T09:26:13.122Z,995.98
2023-02-24T09:27:13.089Z,995.97
2023-02-24T09:28:13.071Z,995.97
2023-02-24T09:29:13.024Z,995.95
2023-02-24T09:30:12.990Z,995.96
2023-02-24T09:31:13.127Z,995.94
2023-02-24T09:32:13.001Z,995.96
2023-02-24T09:33:12.972Z,995.9
2023-02-24T09:34:12.858Z,995.86
2023-02-24T09:35:12.825Z,995.89
2023-02-24T09:36:12.934Z,995.83
2023-02-24T09:37:12.759Z,995.78
2023-02-24T09:38:12.728Z,995.75
2023-02-24T09:39:12.694Z,995.67
2023-02-24T09:40:12.664Z,995.62
2023-02-24T09:41:18.796Z,995.6
2023-02-24T09:42:12.604Z,995.57
2023-02-24T09:43:12.561Z,995.56
2023-02-24T09:44:12.530Z,995.53
2023-02-24T09:45:12.511Z,995.59
2023-02-24T09:46:12.673Z,995.61
2023-02-24T09:47:12.468Z,995.57
2023-02-24T09:48:12.401Z,995.55
2023-02-24T09:49:12.365Z,995.5
2023-02-24T09:50:12.335Z,995.48
2023-02-24T09:51:12.306Z,995.54
2023-02-24T09:52:12.319Z,995.51
2023-02-24T09:53:12.234Z,995.5
2023-02-24T09:54:12.221Z,995.6
2023-02-24T09:55:12.171Z,995.58
2023-02-24T09:56:12.139Z,995.49
2023-02-24T09:57:12.122Z,995.52
2023-02-24T09:58:12.075Z,995.33
2023-02-24T09:59:12.044Z,995.36
2023-02-24T10:00:12.014Z,995.34
2023-02-24T10:01:12.064Z,995.3
2023-02-24T10:02:12.128Z,995.34
2023-02-24T10:03:11.936Z,995.36
2023-02-24T10:04:20.540Z,995.39
2023-02-24T10:05:11.846Z,995.38
2023-02-24T10:06:11.818Z,995.27
2023-02-24T10:07:11.784Z,995.25
2023-02-24T10:08:11.751Z,995.25
2023-02-24T10:09:11.891Z,995.34
2023-02-24T10:10:11.688Z,995.25
2023-02-24T10:11:11.660Z,995.21
2023-02-24T10:12:11.729Z,995.26
2023-02-24T10:13:11.589Z,995.24
2023-02-24T10:14:11.558Z,995.21
2023-02-24T10:15:11.522Z,995.23
2023-02-24T10:16:11.488Z,995.28
2023-02-24T10:17:11.460Z,995.26
2023-02-24T10:18:11.422Z,995.16
2023-02-24T10:19:11.414Z,995.14
2023-02-24T10:20:11.358Z,995.13
2023-02-24T10:21:11.356Z,995.09
2023-02-24T10:22:11.296Z,995.08
2023-02-24T10:23:11.260Z,995.11
2023-02-24T10:24:11.227Z,995.11
2023-02-24T10:25:11.222Z,995.07
2023-02-24T10:26:11.160Z,995.07
2023-02-24T10:27:16.652Z,995.05
2023-02-24T10:28:11.092Z,994.99
2023-02-24T10:29:11.061Z,994.94
2023-02-24T10:30:11.307Z,994.95
2023-02-24T10:31:11.075Z,995.06
2023-02-24T10:32:11.164Z,994.96
2023-02-24T10:33:10.933Z,994.96
2023-02-24T10:34:12.100Z,995.05
2023-02-24T10:35:10.890Z,994.93
2023-02-24T10:36:10.830Z,994.96
2023-02-24T10:37:16.546Z,994.98
2023-02-24T10:38:10.783Z,994.96
2023-02-24T10:39:10.738Z,994.96
2023-02-24T10:40:10.696Z,994.94
2023-02-24T10:41:10.665Z,994.89
2023-02-24T10:42:10.665Z,994.96
2023-02-24T10:43:10.955Z,994.86
2023-02-24T10:44:10.564Z,994.85
2023-02-24T10:45:10.650Z,994.88
2023-02-24T10:46:10.532Z,994.91
2023-02-24T10:47:10.466Z,994.85
2023-02-24T10:48:12.159Z,994.77
2023-02-24T10:49:10.398Z,994.82
2023-02-24T10:50:10.376Z,994.86
2023-02-24T10:51:10.373Z,994.83
2023-02-24T10:52:10.300Z,994.89
2023-02-24T10:53:10.275Z,994.8
2023-02-24T10:54:10.491Z,994.92
2023-02-24T10:55:10.202Z,994.77
2023-02-24T10:56:10.168Z,994.76
2023-02-24T10:57:10.185Z,994.7
2023-02-24T10:58:10.099Z,994.66
2023-02-24T10:59:10.074Z,994.7
2023-02-24T11:00:10.035Z,994.64
2023-02-24T11:01:10.144Z,994.63
2023-02-24T11:02:09.984Z,994.58
2023-02-24T11:03:09.934Z,994.69
2023-02-24T11:04:09.900Z,994.68
2023-02-24T11:05:09.867Z,994.59
2023-02-24T11:06:09.834Z,994.49
2023-02-24T11:07:09.885Z,994.48
2023-02-24T11:08:09.766Z,994.4
2023-02-24T11:09:09.731Z,994.46
2023-02-24T11:10:10.462Z,994.5
2023-02-24T11:11:09.664Z,994.42
2023-02-24T11:12:09.632Z,994.38
2023-02-24T11:13:10.520Z,994.39
2023-02-24T11:14:09.566Z,994.32
2023-02-24T11:15:09.528Z,994.27
2023-02-24T11:16:09.571Z,994.26
2023-02-24T11:17:09.463Z,994.22
2023-02-24T11:18:09.432Z,994.3
2023-02-24T11:19:09.397Z,994.31
2023-02-24T11:20:09.366Z,994.2
2023-02-24T11:21:09.331Z,994.22
2023-02-24T11:22:09.299Z,994.23
2023-02-24T11:23:09.288Z,994.25
2023-02-24T11:24:09.232Z,994.18
2023-02-24T11:25:09.197Z,994.17
2023-02-24T11:26:09.179Z,994.17
2023-02-24T11:27:09.131Z,994.14
2023-02-24T11:28:09.110Z,994.18
2023-02-24T11:29:09.063Z,994.04
2023-02-24T11:30:09.030Z,994.09
2023-02-24T11:31:09.164Z,994.16
2023-02-24T11:32:09.210Z,994.15
2023-02-24T11:33:08.929Z,994.06
2023-02-24T11:34:09.316Z,994.01
2023-02-24T11:35:09.457Z,993.96
2023-02-24T11:36:08.832Z,993.92
2023-02-24T11:37:08.799Z,993.94
2023-02-24T11:38:09.233Z,993.83
2023-02-24T11:39:18.691Z,993.88
2023-02-24T11:40:08.710Z,993.87
2023-02-24T11:41:08.666Z,993.92
2023-02-24T11:42:08.642Z,993.79
2023-02-24T11:43:08.601Z,993.84
2023-02-24T11:44:08.568Z,993.77
2023-02-24T11:45:08.534Z,993.75
2023-02-24T11:46:08.580Z,993.76
2023-02-24T11:47:08.469Z,993.68
2023-02-24T11:48:08.438Z,993.74
2023-02-24T11:49:08.404Z,993.74
2023-02-24T11:50:08.371Z,993.69
2023-02-24T11:51:08.337Z,993.68
2023-02-24T11:52:08.305Z,993.72
2023-02-24T11:53:08.272Z,993.66
2023-02-24T11:54:08.243Z,993.73
2023-02-24T11:55:08.232Z,993.72
2023-02-24T11:56:08.175Z,993.64
2023-02-24T11:57:08.143Z,993.63
2023-02-24T11:58:08.107Z,993.66
2023-02-24T11:59:08.080Z,993.44
2023-02-24T12:00:08.041Z,993.58
2023-02-24T12:01:08.014Z,993.55
2023-02-24T12:02:07.988Z,993.49
2023-02-24T12:03:07.972Z,993.52
2023-02-24T12:04:07.909Z,993.58
2023-02-24T12:05:07.877Z,993.57
2023-02-24T12:06:07.918Z,993.5
2023-02-24T12:07:07.812Z,993.53
2023-02-24T12:08:07.778Z,993.49
2023-02-24T12:09:07.768Z,993.5
2023-02-24T12:10:16.411Z,993.44
2023-02-24T12:11:07.704Z,993.43
2023-02-24T12:12:07.644Z,993.32
2023-02-24T12:13:07.616Z,993.4
2023-02-24T12:14:07.580Z,993.38
2023-02-24T12:15:07.546Z,993.35
2023-02-24T12:16:07.550Z,993.32
2023-02-24T12:17:07.481Z,993.27
2023-02-24T12:18:07.446Z,993.24
2023-02-24T12:19:07.416Z,993.31
2023-02-24T12:20:07.383Z,993.27
2023-02-24T12:21:07.349Z,993.21
2023-02-24T12:22:07.341Z,993.18
2023-02-24T12:23:07.292Z,993.25
2023-02-24T12:24:08.779Z,993.15
2023-02-24T12:25:07.219Z,993.15